Terminal Aerodrome Forecast
Issued by NWS Louisville, KY

Home | Current Version | Previous Version | Text Only | Print | Product List | Glossary On
Versions: 1 2 3 4 5 6 7 8 9 10 11 12 13 14 15
000
FTUS43 KLMK 161120
TAFSDF
TAF
KSDF 161120Z 1612/1718 00000KT 6SM BR BKN150
     FM161600 17005KT P6SM VCSH BKN070
     FM161900 18008KT P6SM VCTS BKN050CB
     FM170000 19004KT P6SM SCT050 BKN150=

USA.gov is the U.S. government's official web portal to all federal, state and local government web resources and services.